sensor_id;sensor_type;location;lat;lon;timestamp;P1;durP1;ratioP1;P2;durP2;ratioP2
56045;SDS011;41913;51.030;3.706;2023-06-22T00:01:09;4.30;;;2.08;;
56045;SDS011;41913;51.030;3.706;2023-06-22T00:03:34;1.83;;;1.73;;
56045;SDS011;41913;51.030;3.706;2023-06-22T00:06:00;1.95;;;1.85;;
56045;SDS011;41913;51.030;3.706;2023-06-22T00:08:26;2.05;;;1.73;;
56045;SDS011;41913;51.030;3.706;2023-06-22T00:10:51;3.97;;;1.77;;
56045;SDS011;41913;51.030;3.706;2023-06-22T00:13:17;5.03;;;1.65;;
56045;SDS011;41913;51.030;3.706;2023-06-22T00:15:43;2.38;;;2.10;;
56045;SDS011;41913;51.030;3.706;2023-06-22T00:18:15;1.70;;;1.52;;
56045;SDS011;41913;51.030;3.706;2023-06-22T00:20:41;3.70;;;1.80;;
56045;SDS011;41913;51.030;3.706;2023-06-22T00:23:08;3.25;;;1.55;;
56045;SDS011;41913;51.030;3.706;2023-06-22T00:28:04;1.73;;;1.52;;
56045;SDS011;41913;51.030;3.706;2023-06-22T00:30:30;1.88;;;1.77;;
56045;SDS011;41913;51.030;3.706;2023-06-22T00:32:57;1.98;;;1.75;;
56045;SDS011;41913;51.030;3.706;2023-06-22T00:35:25;4.00;;;1.85;;
56045;SDS011;41913;51.030;3.706;2023-06-22T00:37:59;1.45;;;1.38;;
56045;SDS011;41913;51.030;3.706;2023-06-22T00:40:29;2.22;;;2.05;;
56045;SDS011;41913;51.030;3.706;2023-06-22T00:42:55;2.25;;;2.00;;
56045;SDS011;41913;51.030;3.706;2023-06-22T00:45:24;1.88;;;1.77;;
56045;SDS011;41913;51.030;3.706;2023-06-22T00:47:53;2.65;;;2.05;;
56045;SDS011;41913;51.030;3.706;2023-06-22T00:50:23;2.78;;;1.88;;
56045;SDS011;41913;51.030;3.706;2023-06-22T00:52:52;1.50;;;1.40;;
56045;SDS011;41913;51.030;3.706;2023-06-22T00:55:22;4.03;;;1.58;;
56045;SDS011;41913;51.030;3.706;2023-06-22T00:57:51;2.25;;;1.73;;
56045;SDS011;41913;51.030;3.706;2023-06-22T01:00:24;2.67;;;1.80;;
56045;SDS011;41913;51.030;3.706;2023-06-22T01:02:53;3.83;;;1.63;;
56045;SDS011;41913;51.030;3.706;2023-06-22T01:05:21;1.63;;;1.52;;
56045;SDS011;41913;51.030;3.706;2023-06-22T01:13:32;1.92;;;1.70;;
56045;SDS011;41913;51.030;3.706;2023-06-22T01:16:18;1.77;;;1.67;;
56045;SDS011;41913;51.030;3.706;2023-06-22T01:18:50;3.25;;;1.98;;
56045;SDS011;41913;51.030;3.706;2023-06-22T01:21:19;2.08;;;1.98;;
56045;SDS011;41913;51.030;3.706;2023-06-22T01:23:50;4.63;;;1.95;;
56045;SDS011;41913;51.030;3.706;2023-06-22T01:26:57;4.03;;;1.90;;
56045;SDS011;41913;51.030;3.706;2023-06-22T01:29:36;2.25;;;1.65;;
56045;SDS011;41913;51.030;3.706;2023-06-22T01:32:04;1.30;;;1.17;;
56045;SDS011;41913;51.030;3.706;2023-06-22T01:34:34;1.50;;;1.50;;
56045;SDS011;41913;51.030;3.706;2023-06-22T01:37:01;1.20;;;1.10;;
56045;SDS011;41913;51.030;3.706;2023-06-22T01:39:29;3.10;;;2.15;;
56045;SDS011;41913;51.030;3.706;2023-06-22T01:41:56;1.75;;;1.65;;
56045;SDS011;41913;51.030;3.706;2023-06-22T01:44:24;1.65;;;1.55;;
56045;SDS011;41913;51.030;3.706;2023-06-22T01:46:53;2.40;;;1.23;;
56045;SDS011;41913;51.030;3.706;2023-06-22T01:49:20;1.50;;;1.40;;
56045;SDS011;41913;51.030;3.706;2023-06-22T01:51:46;1.77;;;1.65;;
56045;SDS011;41913;51.030;3.706;2023-06-22T01:54:13;1.85;;;1.67;;
56045;SDS011;41913;51.030;3.706;2023-06-22T01:56:38;1.85;;;1.30;;
56045;SDS011;41913;51.030;3.706;2023-06-22T01:59:11;1.40;;;1.40;;
56045;SDS011;41913;51.030;3.706;2023-06-22T02:04:32;1.20;;;1.20;;
56045;SDS011;41913;51.030;3.706;2023-06-22T02:07:13;2.30;;;1.42;;
56045;SDS011;41913;51.030;3.706;2023-06-22T02:09:45;1.63;;;1.33;;
56045;SDS011;41913;51.030;3.706;2023-06-22T02:12:17;1.02;;;1.02;;
56045;SDS011;41913;51.030;3.706;2023-06-22T02:14:46;1.52;;;1.35;;
56045;SDS011;41913;51.030;3.706;2023-06-22T02:17:12;1.02;;;1.02;;
56045;SDS011;41913;51.030;3.706;2023-06-22T02:19:41;2.97;;;1.77;;
56045;SDS011;41913;51.030;3.706;2023-06-22T02:22:09;1.40;;;1.40;;
56045;SDS011;41913;51.030;3.706;2023-06-22T02:24:34;1.35;;;1.35;;
56045;SDS011;41913;51.030;3.706;2023-06-22T02:27:03;2.55;;;1.38;;
56045;SDS011;41913;51.030;3.706;2023-06-22T02:32:02;1.40;;;1.30;;
56045;SDS011;41913;51.030;3.706;2023-06-22T02:34:30;1.27;;;1.17;;
56045;SDS011;41913;51.030;3.706;2023-06-22T02:36:57;1.55;;;1.27;;
56045;SDS011;41913;51.030;3.706;2023-06-22T02:39:25;2.08;;;1.38;;
56045;SDS011;41913;51.030;3.706;2023-06-22T02:41:53;1.30;;;1.20;;
56045;SDS011;41913;51.030;3.706;2023-06-22T02:44:22;0.98;;;0.98;;
56045;SDS011;41913;51.030;3.706;2023-06-22T02:46:49;1.15;;;1.10;;
56045;SDS011;41913;51.030;3.706;2023-06-22T02:49:15;1.25;;;1.25;;
56045;SDS011;41913;51.030;3.706;2023-06-22T02:51:44;1.23;;;1.20;;
56045;SDS011;41913;51.030;3.706;2023-06-22T02:54:12;1.25;;;1.25;;
56045;SDS011;41913;51.030;3.706;2023-06-22T02:56:38;1.60;;;1.50;;
56045;SDS011;41913;51.030;3.706;2023-06-22T02:59:05;1.13;;;1.13;;
56045;SDS011;41913;51.030;3.706;2023-06-22T03:01:32;1.13;;;1.10;;
56045;SDS011;41913;51.030;3.706;2023-06-22T03:04:03;1.25;;;1.25;;
56045;SDS011;41913;51.030;3.706;2023-06-22T03:06:29;1.85;;;1.27;;
56045;SDS011;41913;51.030;3.706;2023-06-22T03:08:59;1.30;;;1.20;;
56045;SDS011;41913;51.030;3.706;2023-06-22T03:11:26;1.27;;;1.17;;
56045;SDS011;41913;51.030;3.706;2023-06-22T03:13:55;1.35;;;1.20;;
56045;SDS011;41913;51.030;3.706;2023-06-22T03:16:20;1.42;;;1.42;;
56045;SDS011;41913;51.030;3.706;2023-06-22T03:18:46;1.70;;;1.60;;
56045;SDS011;41913;51.030;3.706;2023-06-22T03:21:12;1.98;;;1.45;;
56045;SDS011;41913;51.030;3.706;2023-06-22T03:23:37;1.30;;;1.30;;
56045;SDS011;41913;51.030;3.706;2023-06-22T03:26:03;1.67;;;1.58;;
56045;SDS011;41913;51.030;3.706;2023-06-22T03:28:30;1.65;;;1.60;;
56045;SDS011;41913;51.030;3.706;2023-06-22T03:30:59;1.88;;;1.70;;
56045;SDS011;41913;51.030;3.706;2023-06-22T03:33:26;1.67;;;1.58;;
56045;SDS011;41913;51.030;3.706;2023-06-22T03:35:52;1.50;;;1.40;;
56045;SDS011;41913;51.030;3.706;2023-06-22T03:38:19;2.65;;;1.77;;
56045;SDS011;41913;51.030;3.706;2023-06-22T03:40:46;1.67;;;1.58;;
56045;SDS011;41913;51.030;3.706;2023-06-22T03:43:12;2.50;;;2.10;;
56045;SDS011;41913;51.030;3.706;2023-06-22T03:45:38;2.55;;;1.95;;
56045;SDS011;41913;51.030;3.706;2023-06-22T03:48:05;1.48;;;1.38;;
56045;SDS011;41913;51.030;3.706;2023-06-22T03:50:31;1.90;;;1.80;;
56045;SDS011;41913;51.030;3.706;2023-06-22T03:52:56;2.30;;;2.13;;
56045;SDS011;41913;51.030;3.706;2023-06-22T03:55:24;2.65;;;1.95;;
56045;SDS011;41913;51.030;3.706;2023-06-22T03:57:50;3.63;;;2.35;;
56045;SDS011;41913;51.030;3.706;2023-06-22T04:00:15;2.80;;;2.28;;
56045;SDS011;41913;51.030;3.706;2023-06-22T04:02:41;2.00;;;1.90;;
56045;SDS011;41913;51.030;3.706;2023-06-22T04:05:08;2.20;;;1.95;;
56045;SDS011;41913;51.030;3.706;2023-06-22T04:07:34;2.60;;;2.40;;
56045;SDS011;41913;51.030;3.706;2023-06-22T04:10:03;3.00;;;2.42;;
56045;SDS011;41913;51.030;3.706;2023-06-22T04:12:29;2.10;;;2.00;;
56045;SDS011;41913;51.030;3.706;2023-06-22T04:14:55;2.85;;;2.50;;
56045;SDS011;41913;51.030;3.706;2023-06-22T04:17:21;3.55;;;2.45;;
56045;SDS011;41913;51.030;3.706;2023-06-22T04:19:46;4.20;;;2.40;;
56045;SDS011;41913;51.030;3.706;2023-06-22T04:22:12;3.58;;;2.30;;
56045;SDS011;41913;51.030;3.706;2023-06-22T04:24:38;2.30;;;2.10;;
56045;SDS011;41913;51.030;3.706;2023-06-22T04:27:03;2.63;;;2.42;;
56045;SDS011;41913;51.030;3.706;2023-06-22T04:29:30;2.40;;;2.20;;
56045;SDS011;41913;51.030;3.706;2023-06-22T04:31:57;2.65;;;2.45;;
56045;SDS011;41913;51.030;3.706;2023-06-22T04:34:23;3.10;;;2.50;;
56045;SDS011;41913;51.030;3.706;2023-06-22T04:36:51;4.53;;;2.20;;
56045;SDS011;41913;51.030;3.706;2023-06-22T04:39:17;4.13;;;2.83;;
56045;SDS011;41913;51.030;3.706;2023-06-22T04:41:44;2.65;;;2.45;;
56045;SDS011;41913;51.030;3.706;2023-06-22T04:44:11;4.22;;;2.53;;
56045;SDS011;41913;51.030;3.706;2023-06-22T04:46:38;2.20;;;2.00;;
56045;SDS011;41913;51.030;3.706;2023-06-22T04:49:05;2.35;;;2.20;;
56045;SDS011;41913;51.030;3.706;2023-06-22T04:51:37;2.47;;;2.35;;
56045;SDS011;41913;51.030;3.706;2023-06-22T04:54:04;6.15;;;2.40;;
56045;SDS011;41913;51.030;3.706;2023-06-22T04:56:32;2.55;;;2.35;;
56045;SDS011;41913;51.030;3.706;2023-06-22T04:58:58;2.97;;;2.78;;
56045;SDS011;41913;51.030;3.706;2023-06-22T05:01:24;3.33;;;2.42;;
56045;SDS011;41913;51.030;3.706;2023-06-22T05:03:50;2.63;;;2.42;;
56045;SDS011;41913;51.030;3.706;2023-06-22T05:06:20;4.05;;;2.20;;
56045;SDS011;41913;51.030;3.706;2023-06-22T05:08:50;2.58;;;2.45;;
56045;SDS011;41913;51.030;3.706;2023-06-22T05:11:23;3.78;;;2.30;;
56045;SDS011;41913;51.030;3.706;2023-06-22T05:13:49;1.90;;;1.80;;
56045;SDS011;41913;51.030;3.706;2023-06-22T05:16:15;2.95;;;2.60;;
56045;SDS011;41913;51.030;3.706;2023-06-22T05:18:40;3.25;;;2.30;;
56045;SDS011;41913;51.030;3.706;2023-06-22T05:21:06;7.32;;;4.30;;
56045;SDS011;41913;51.030;3.706;2023-06-22T05:23:32;5.63;;;4.45;;
56045;SDS011;41913;51.030;3.706;2023-06-22T05:25:58;8.18;;;4.82;;
56045;SDS011;41913;51.030;3.706;2023-06-22T05:28:24;5.65;;;4.38;;
56045;SDS011;41913;51.030;3.706;2023-06-22T05:30:53;11.07;;;5.40;;
56045;SDS011;41913;51.030;3.706;2023-06-22T05:33:21;29.05;;;6.20;;
56045;SDS011;41913;51.030;3.706;2023-06-22T05:35:47;25.90;;;6.55;;
56045;SDS011;41913;51.030;3.706;2023-06-22T05:38:13;13.05;;;5.32;;
56045;SDS011;41913;51.030;3.706;2023-06-22T05:40:40;10.07;;;5.07;;
56045;SDS011;41913;51.030;3.706;2023-06-22T05:43:06;13.82;;;5.22;;
56045;SDS011;41913;51.030;3.706;2023-06-22T05:45:33;18.42;;;5.38;;
56045;SDS011;41913;51.030;3.706;2023-06-22T05:47:59;9.30;;;5.95;;
56045;SDS011;41913;51.030;3.706;2023-06-22T05:50:24;15.18;;;5.90;;
56045;SDS011;41913;51.030;3.706;2023-06-22T05:52:51;13.65;;;6.28;;
56045;SDS011;41913;51.030;3.706;2023-06-22T05:55:17;13.27;;;5.20;;
56045;SDS011;41913;51.030;3.706;2023-06-22T05:57:44;5.65;;;4.35;;
56045;SDS011;41913;51.030;3.706;2023-06-22T06:00:10;9.50;;;3.88;;
56045;SDS011;41913;51.030;3.706;2023-06-22T06:02:37;7.07;;;4.25;;
56045;SDS011;41913;51.030;3.706;2023-06-22T06:05:08;5.05;;;4.43;;
56045;SDS011;41913;51.030;3.706;2023-06-22T06:07:40;12.55;;;4.88;;
56045;SDS011;41913;51.030;3.706;2023-06-22T06:10:07;14.25;;;4.93;;
56045;SDS011;41913;51.030;3.706;2023-06-22T06:12:33;11.02;;;3.90;;
56045;SDS011;41913;51.030;3.706;2023-06-22T06:14:59;15.43;;;5.03;;
56045;SDS011;41913;51.030;3.706;2023-06-22T06:17:24;15.75;;;5.38;;
56045;SDS011;41913;51.030;3.706;2023-06-22T06:19:50;11.85;;;5.35;;
56045;SDS011;41913;51.030;3.706;2023-06-22T06:22:16;7.57;;;4.90;;
56045;SDS011;41913;51.030;3.706;2023-06-22T06:24:41;8.27;;;5.18;;
56045;SDS011;41913;51.030;3.706;2023-06-22T06:27:07;17.42;;;5.68;;
56045;SDS011;41913;51.030;3.706;2023-06-22T06:29:33;9.38;;;5.82;;
56045;SDS011;41913;51.030;3.706;2023-06-22T06:31:58;7.85;;;6.95;;
56045;SDS011;41913;51.030;3.706;2023-06-22T06:34:24;10.13;;;5.95;;
56045;SDS011;41913;51.030;3.706;2023-06-22T06:36:50;6.25;;;5.63;;
56045;SDS011;41913;51.030;3.706;2023-06-22T06:39:15;8.68;;;5.47;;
56045;SDS011;41913;51.030;3.706;2023-06-22T06:41:41;8.38;;;6.15;;
56045;SDS011;41913;51.030;3.706;2023-06-22T06:44:07;14.43;;;6.20;;
56045;SDS011;41913;51.030;3.706;2023-06-22T06:46:33;8.80;;;5.75;;
56045;SDS011;41913;51.030;3.706;2023-06-22T06:48:58;13.55;;;6.00;;
56045;SDS011;41913;51.030;3.706;2023-06-22T06:51:24;7.15;;;5.93;;
56045;SDS011;41913;51.030;3.706;2023-06-22T06:53:49;13.10;;;5.82;;
56045;SDS011;41913;51.030;3.706;2023-06-22T06:56:15;7.20;;;5.72;;
56045;SDS011;41913;51.030;3.706;2023-06-22T06:58:41;7.50;;;6.03;;
56045;SDS011;41913;51.030;3.706;2023-06-22T07:01:07;9.82;;;6.43;;
56045;SDS011;41913;51.030;3.706;2023-06-22T07:03:33;6.45;;;5.82;;
56045;SDS011;41913;51.030;3.706;2023-06-22T07:05:59;7.53;;;6.25;;
56045;SDS011;41913;51.030;3.706;2023-06-22T07:08:25;8.70;;;5.72;;
56045;SDS011;41913;51.030;3.706;2023-06-22T07:10:51;7.53;;;6.15;;
56045;SDS011;41913;51.030;3.706;2023-06-22T07:13:18;8.05;;;6.00;;
56045;SDS011;41913;51.030;3.706;2023-06-22T07:15:44;6.68;;;5.70;;
56045;SDS011;41913;51.030;3.706;2023-06-22T07:18:09;8.95;;;6.28;;
56045;SDS011;41913;51.030;3.706;2023-06-22T07:20:35;7.50;;;6.18;;
56045;SDS011;41913;51.030;3.706;2023-06-22T07:23:02;11.88;;;6.45;;
56045;SDS011;41913;51.030;3.706;2023-06-22T07:25:28;11.13;;;6.72;;
56045;SDS011;41913;51.030;3.706;2023-06-22T07:28:06;13.18;;;6.25;;
56045;SDS011;41913;51.030;3.706;2023-06-22T07:30:33;8.75;;;5.60;;
56045;SDS011;41913;51.030;3.706;2023-06-22T07:32:59;7.90;;;6.22;;
56045;SDS011;41913;51.030;3.706;2023-06-22T07:35:32;8.65;;;6.57;;
56045;SDS011;41913;51.030;3.706;2023-06-22T07:37:57;8.10;;;5.50;;
56045;SDS011;41913;51.030;3.706;2023-06-22T07:40:23;8.95;;;6.28;;
56045;SDS011;41913;51.030;3.706;2023-06-22T07:42:50;8.23;;;5.85;;
56045;SDS011;41913;51.030;3.706;2023-06-22T07:45:17;7.57;;;6.20;;
56045;SDS011;41913;51.030;3.706;2023-06-22T07:47:43;10.93;;;7.00;;
56045;SDS011;41913;51.030;3.706;2023-06-22T07:50:09;9.57;;;6.35;;
56045;SDS011;41913;51.030;3.706;2023-06-22T07:52:35;8.18;;;6.25;;
56045;SDS011;41913;51.030;3.706;2023-06-22T07:55:00;8.20;;;6.30;;
56045;SDS011;41913;51.030;3.706;2023-06-22T07:57:28;9.13;;;6.15;;
56045;SDS011;41913;51.030;3.706;2023-06-22T08:00:02;8.00;;;5.50;;
56045;SDS011;41913;51.030;3.706;2023-06-22T08:02:37;6.15;;;5.50;;
56045;SDS011;41913;51.030;3.706;2023-06-22T08:05:02;9.02;;;5.95;;
56045;SDS011;41913;51.030;3.706;2023-06-22T08:07:30;7.15;;;5.80;;
56045;SDS011;41913;51.030;3.706;2023-06-22T08:09:58;6.35;;;4.82;;
56045;SDS011;41913;51.030;3.706;2023-06-22T08:12:23;11.75;;;5.90;;
56045;SDS011;41913;51.030;3.706;2023-06-22T08:14:49;5.32;;;4.85;;
56045;SDS011;41913;51.030;3.706;2023-06-22T08:17:15;6.32;;;4.85;;
56045;SDS011;41913;51.030;3.706;2023-06-22T08:19:41;8.85;;;5.63;;
56045;SDS011;41913;51.030;3.706;2023-06-22T08:22:06;10.05;;;4.97;;
56045;SDS011;41913;51.030;3.706;2023-06-22T08:24:32;6.57;;;4.50;;
56045;SDS011;41913;51.030;3.706;2023-06-22T08:26:58;8.57;;;5.13;;
56045;SDS011;41913;51.030;3.706;2023-06-22T08:29:24;5.07;;;4.63;;
56045;SDS011;41913;51.030;3.706;2023-06-22T08:31:49;9.55;;;5.70;;
56045;SDS011;41913;51.030;3.706;2023-06-22T08:34:15;10.88;;;5.30;;
56045;SDS011;41913;51.030;3.706;2023-06-22T08:36:45;7.53;;;5.38;;
56045;SDS011;41913;51.030;3.706;2023-06-22T08:39:16;9.98;;;4.93;;
56045;SDS011;41913;51.030;3.706;2023-06-22T08:41:42;38.33;;;7.53;;
56045;SDS011;41913;51.030;3.706;2023-06-22T08:44:08;9.35;;;5.43;;
56045;SDS011;41913;51.030;3.706;2023-06-22T08:46:34;5.70;;;4.90;;
56045;SDS011;41913;51.030;3.706;2023-06-22T08:48:59;6.10;;;3.80;;
56045;SDS011;41913;51.030;3.706;2023-06-22T08:51:26;34.53;;;6.38;;
56045;SDS011;41913;51.030;3.706;2023-06-22T08:53:52;40.08;;;8.00;;
56045;SDS011;41913;51.030;3.706;2023-06-22T08:56:17;42.15;;;6.95;;
56045;SDS011;41913;51.030;3.706;2023-06-22T08:58:44;30.38;;;6.07;;
56045;SDS011;41913;51.030;3.706;2023-06-22T09:01:09;23.17;;;6.57;;
56045;SDS011;41913;51.030;3.706;2023-06-22T09:03:35;24.90;;;5.30;;
56045;SDS011;41913;51.030;3.706;2023-06-22T09:06:02;16.88;;;5.18;;
56045;SDS011;41913;51.030;3.706;2023-06-22T09:08:28;26.50;;;5.75;;
56045;SDS011;41913;51.030;3.706;2023-06-22T09:10:54;15.65;;;5.10;;
56045;SDS011;41913;51.030;3.706;2023-06-22T09:13:20;16.38;;;5.43;;
56045;SDS011;41913;51.030;3.706;2023-06-22T09:15:45;28.35;;;5.00;;
56045;SDS011;41913;51.030;3.706;2023-06-22T09:18:11;23.00;;;5.13;;
56045;SDS011;41913;51.030;3.706;2023-06-22T09:20:38;17.88;;;3.60;;
56045;SDS011;41913;51.030;3.706;2023-06-22T09:23:03;22.10;;;4.88;;
56045;SDS011;41913;51.030;3.706;2023-06-22T09:25:29;27.13;;;4.78;;
56045;SDS011;41913;51.030;3.706;2023-06-22T09:27:55;20.13;;;4.85;;
56045;SDS011;41913;51.030;3.706;2023-06-22T09:30:21;22.40;;;4.85;;
56045;SDS011;41913;51.030;3.706;2023-06-22T09:32:47;15.95;;;4.10;;
56045;SDS011;41913;51.030;3.706;2023-06-22T09:35:12;17.85;;;4.75;;
56045;SDS011;41913;51.030;3.706;2023-06-22T09:37:38;17.33;;;4.32;;
56045;SDS011;41913;51.030;3.706;2023-06-22T09:40:05;7.88;;;3.30;;
56045;SDS011;41913;51.030;3.706;2023-06-22T09:42:37;11.75;;;3.60;;
56045;SDS011;41913;51.030;3.706;2023-06-22T09:45:03;14.70;;;4.45;;
56045;SDS011;41913;51.030;3.706;2023-06-22T09:47:29;12.48;;;3.78;;
56045;SDS011;41913;51.030;3.706;2023-06-22T09:49:55;9.77;;;3.25;;
56045;SDS011;41913;51.030;3.706;2023-06-22T09:52:21;8.43;;;3.22;;
56045;SDS011;41913;51.030;3.706;2023-06-22T09:54:47;8.27;;;3.85;;
56045;SDS011;41913;51.030;3.706;2023-06-22T09:57:14;12.18;;;3.42;;
56045;SDS011;41913;51.030;3.706;2023-06-22T09:59:40;10.40;;;2.95;;
56045;SDS011;41913;51.030;3.706;2023-06-22T10:02:06;12.05;;;3.22;;
56045;SDS011;41913;51.030;3.706;2023-06-22T10:04:33;9.05;;;3.38;;
56045;SDS011;41913;51.030;3.706;2023-06-22T10:06:59;10.90;;;3.85;;
56045;SDS011;41913;51.030;3.706;2023-06-22T10:09:25;9.90;;;3.08;;
56045;SDS011;41913;51.030;3.706;2023-06-22T10:11:50;8.20;;;3.42;;
56045;SDS011;41913;51.030;3.706;2023-06-22T10:14:16;6.60;;;2.97;;
56045;SDS011;41913;51.030;3.706;2023-06-22T10:16:42;10.02;;;3.50;;
56045;SDS011;41913;51.030;3.706;2023-06-22T10:19:07;6.35;;;2.92;;
56045;SDS011;41913;51.030;3.706;2023-06-22T10:21:33;9.35;;;2.90;;
56045;SDS011;41913;51.030;3.706;2023-06-22T10:24:00;3.45;;;2.80;;
56045;SDS011;41913;51.030;3.706;2023-06-22T10:26:31;8.32;;;3.08;;
56045;SDS011;41913;51.030;3.706;2023-06-22T10:28:57;4.68;;;2.45;;
56045;SDS011;41913;51.030;3.706;2023-06-22T10:31:26;5.47;;;2.55;;
56045;SDS011;41913;51.030;3.706;2023-06-22T10:33:53;7.28;;;3.30;;
56045;SDS011;41913;51.030;3.706;2023-06-22T10:36:20;10.73;;;3.08;;
56045;SDS011;41913;51.030;3.706;2023-06-22T10:38:46;6.65;;;2.97;;
56045;SDS011;41913;51.030;3.706;2023-06-22T10:41:13;10.25;;;3.78;;
56045;SDS011;41913;51.030;3.706;2023-06-22T10:43:38;8.32;;;2.72;;
56045;SDS011;41913;51.030;3.706;2023-06-22T10:46:04;9.32;;;3.13;;
56045;SDS011;41913;51.030;3.706;2023-06-22T10:48:32;6.10;;;2.78;;
56045;SDS011;41913;51.030;3.706;2023-06-22T10:50:58;6.53;;;3.20;;
56045;SDS011;41913;51.030;3.706;2023-06-22T10:53:23;5.82;;;2.78;;
56045;SDS011;41913;51.030;3.706;2023-06-22T10:55:49;4.95;;;2.70;;
56045;SDS011;41913;51.030;3.706;2023-06-22T10:58:17;5.95;;;2.47;;
56045;SDS011;41913;51.030;3.706;2023-06-22T11:00:44;5.68;;;2.83;;
56045;SDS011;41913;51.030;3.706;2023-06-22T11:03:10;3.38;;;2.65;;
56045;SDS011;41913;51.030;3.706;2023-06-22T11:05:35;8.35;;;2.55;;
56045;SDS011;41913;51.030;3.706;2023-06-22T11:08:01;12.27;;;2.83;;
56045;SDS011;41913;51.030;3.706;2023-06-22T11:10:27;2.72;;;2.53;;
56045;SDS011;41913;51.030;3.706;2023-06-22T11:12:52;5.18;;;2.30;;
56045;SDS011;41913;51.030;3.706;2023-06-22T11:15:18;4.03;;;2.05;;
56045;SDS011;41913;51.030;3.706;2023-06-22T11:17:44;4.40;;;2.80;;
56045;SDS011;41913;51.030;3.706;2023-06-22T11:20:10;5.20;;;2.78;;
56045;SDS011;41913;51.030;3.706;2023-06-22T11:22:37;5.70;;;2.85;;
56045;SDS011;41913;51.030;3.706;2023-06-22T11:25:04;4.63;;;2.58;;
56045;SDS011;41913;51.030;3.706;2023-06-22T11:27:31;3.75;;;2.75;;
56045;SDS011;41913;51.030;3.706;2023-06-22T11:29:56;5.05;;;2.55;;
56045;SDS011;41913;51.030;3.706;2023-06-22T11:32:22;3.92;;;2.75;;
56045;SDS011;41913;51.030;3.706;2023-06-22T11:34:48;7.80;;;2.53;;
56045;SDS011;41913;51.030;3.706;2023-06-22T11:37:14;6.10;;;3.05;;
56045;SDS011;41913;51.030;3.706;2023-06-22T11:39:40;2.33;;;2.13;;
56045;SDS011;41913;51.030;3.706;2023-06-22T11:42:06;3.25;;;2.45;;
56045;SDS011;41913;51.030;3.706;2023-06-22T11:44:33;5.85;;;2.30;;
56045;SDS011;41913;51.030;3.706;2023-06-22T11:46:59;4.28;;;2.38;;
56045;SDS011;41913;51.030;3.706;2023-06-22T11:49:26;3.53;;;2.28;;
56045;SDS011;41913;51.030;3.706;2023-06-22T11:51:52;4.43;;;2.50;;
56045;SDS011;41913;51.030;3.706;2023-06-22T11:54:18;2.83;;;2.10;;
56045;SDS011;41913;51.030;3.706;2023-06-22T11:56:43;4.72;;;2.22;;
56045;SDS011;41913;51.030;3.706;2023-06-22T11:59:09;2.75;;;2.22;;
56045;SDS011;41913;51.030;3.706;2023-06-22T12:01:35;3.47;;;2.28;;
56045;SDS011;41913;51.030;3.706;2023-06-22T12:04:00;4.20;;;2.45;;
56045;SDS011;41913;51.030;3.706;2023-06-22T12:06:27;2.22;;;2.00;;
56045;SDS011;41913;51.030;3.706;2023-06-22T12:08:53;3.10;;;2.08;;
56045;SDS011;41913;51.030;3.706;2023-06-22T12:11:18;2.40;;;2.20;;
56045;SDS011;41913;51.030;3.706;2023-06-22T12:13:44;2.20;;;1.98;;
56045;SDS011;41913;51.030;3.706;2023-06-22T12:16:10;1.98;;;1.88;;
56045;SDS011;41913;51.030;3.706;2023-06-22T12:18:37;2.83;;;2.17;;
56045;SDS011;41913;51.030;3.706;2023-06-22T12:21:02;1.95;;;1.85;;
56045;SDS011;41913;51.030;3.706;2023-06-22T12:23:28;3.08;;;2.15;;
56045;SDS011;41913;51.030;3.706;2023-06-22T12:25:54;2.00;;;1.90;;
56045;SDS011;41913;51.030;3.706;2023-06-22T12:28:19;2.08;;;1.83;;
56045;SDS011;41913;51.030;3.706;2023-06-22T12:30:45;3.90;;;1.73;;
56045;SDS011;41913;51.030;3.706;2023-06-22T12:33:11;4.28;;;1.65;;
56045;SDS011;41913;51.030;3.706;2023-06-22T12:35:36;3.38;;;2.15;;
56045;SDS011;41913;51.030;3.706;2023-06-22T12:38:02;2.53;;;1.85;;
56045;SDS011;41913;51.030;3.706;2023-06-22T12:40:28;2.25;;;1.85;;
56045;SDS011;41913;51.030;3.706;2023-06-22T12:42:53;5.15;;;2.20;;
56045;SDS011;41913;51.030;3.706;2023-06-22T12:45:19;2.28;;;1.95;;
56045;SDS011;41913;51.030;3.706;2023-06-22T12:47:46;2.53;;;1.90;;
56045;SDS011;41913;51.030;3.706;2023-06-22T12:50:12;1.90;;;1.80;;
56045;SDS011;41913;51.030;3.706;2023-06-22T12:52:39;2.17;;;1.95;;
56045;SDS011;41913;51.030;3.706;2023-06-22T12:55:06;1.90;;;1.70;;
56045;SDS011;41913;51.030;3.706;2023-06-22T12:57:32;1.95;;;1.85;;
56045;SDS011;41913;51.030;3.706;2023-06-22T12:59:57;2.28;;;2.17;;
56045;SDS011;41913;51.030;3.706;2023-06-22T13:02:25;3.42;;;1.92;;
56045;SDS011;41913;51.030;3.706;2023-06-22T13:04:51;5.88;;;2.15;;
56045;SDS011;41913;51.030;3.706;2023-06-22T13:07:16;2.47;;;2.28;;
56045;SDS011;41913;51.030;3.706;2023-06-22T13:09:42;2.42;;;2.22;;
56045;SDS011;41913;51.030;3.706;2023-06-22T13:12:10;5.70;;;2.20;;
56045;SDS011;41913;51.030;3.706;2023-06-22T13:14:36;3.63;;;2.15;;
56045;SDS011;41913;51.030;3.706;2023-06-22T13:17:01;2.67;;;2.47;;
56045;SDS011;41913;51.030;3.706;2023-06-22T13:19:27;1.77;;;1.67;;
56045;SDS011;41913;51.030;3.706;2023-06-22T13:21:57;2.10;;;2.00;;
56045;SDS011;41913;51.030;3.706;2023-06-22T13:24:23;5.25;;;2.30;;
56045;SDS011;41913;51.030;3.706;2023-06-22T13:26:48;2.42;;;2.22;;
56045;SDS011;41913;51.030;3.706;2023-06-22T13:29:14;2.00;;;1.90;;
56045;SDS011;41913;51.030;3.706;2023-06-22T13:31:39;2.42;;;2.28;;
56045;SDS011;41913;51.030;3.706;2023-06-22T13:34:05;2.47;;;2.10;;
56045;SDS011;41913;51.030;3.706;2023-06-22T13:36:31;2.15;;;1.95;;
56045;SDS011;41913;51.030;3.706;2023-06-22T13:38:57;2.50;;;1.92;;
56045;SDS011;41913;51.030;3.706;2023-06-22T13:41:22;5.65;;;2.08;;
56045;SDS011;41913;51.030;3.706;2023-06-22T13:43:48;1.92;;;1.83;;
56045;SDS011;41913;51.030;3.706;2023-06-22T13:46:14;2.33;;;2.22;;
56045;SDS011;41913;51.030;3.706;2023-06-22T13:48:39;2.25;;;2.15;;
56045;SDS011;41913;51.030;3.706;2023-06-22T13:51:05;2.70;;;2.35;;
56045;SDS011;41913;51.030;3.706;2023-06-22T13:53:32;2.08;;;1.92;;
56045;SDS011;41913;51.030;3.706;2023-06-22T13:55:58;1.60;;;1.60;;
56045;SDS011;41913;51.030;3.706;2023-06-22T13:58:24;2.30;;;2.20;;
56045;SDS011;41913;51.030;3.706;2023-06-22T14:00:50;3.80;;;1.70;;
56045;SDS011;41913;51.030;3.706;2023-06-22T14:03:16;2.17;;;2.00;;
56045;SDS011;41913;51.030;3.706;2023-06-22T14:05:41;2.20;;;2.10;;
56045;SDS011;41913;51.030;3.706;2023-06-22T14:08:07;2.60;;;1.80;;
56045;SDS011;41913;51.030;3.706;2023-06-22T14:10:34;2.95;;;1.85;;
56045;SDS011;41913;51.030;3.706;2023-06-22T14:13:00;3.28;;;2.78;;
56045;SDS011;41913;51.030;3.706;2023-06-22T14:15:25;3.38;;;2.83;;
56045;SDS011;41913;51.030;3.706;2023-06-22T14:17:51;3.17;;;2.33;;
56045;SDS011;41913;51.030;3.706;2023-06-22T14:20:17;2.33;;;2.17;;
56045;SDS011;41913;51.030;3.706;2023-06-22T14:22:43;3.03;;;2.72;;
56045;SDS011;41913;51.030;3.706;2023-06-22T14:25:09;3.70;;;3.15;;
56045;SDS011;41913;51.030;3.706;2023-06-22T14:27:35;3.25;;;2.92;;
56045;SDS011;41913;51.030;3.706;2023-06-22T14:30:00;2.95;;;2.67;;
56045;SDS011;41913;51.030;3.706;2023-06-22T14:32:27;3.60;;;3.25;;
56045;SDS011;41913;51.030;3.706;2023-06-22T14:34:55;6.20;;;3.92;;
56045;SDS011;41913;51.030;3.706;2023-06-22T14:37:20;4.55;;;3.72;;
56045;SDS011;41913;51.030;3.706;2023-06-22T14:39:46;5.45;;;3.58;;
56045;SDS011;41913;51.030;3.706;2023-06-22T14:42:12;6.35;;;3.95;;
56045;SDS011;41913;51.030;3.706;2023-06-22T14:44:37;4.20;;;3.80;;
56045;SDS011;41913;51.030;3.706;2023-06-22T14:47:03;7.43;;;4.35;;
56045;SDS011;41913;51.030;3.706;2023-06-22T14:49:29;5.25;;;4.75;;
56045;SDS011;41913;51.030;3.706;2023-06-22T14:51:55;4.00;;;3.70;;
56045;SDS011;41913;51.030;3.706;2023-06-22T14:54:20;6.18;;;5.05;;
56045;SDS011;41913;51.030;3.706;2023-06-22T14:56:47;6.90;;;5.47;;